메인 페이지
METAR-TAF:

METAR-TAF

공항 :

야운데, 카메룬

위도: 03-50N, 경도: 011-31E, 고도: 751m

현재 날씨관측

예보는 33분 전, 09:00시(UTC)에 발표되었습니다.
북서5kt풍과 풍을 오가는
온도 25°C
습도 79%
기압 1017 hPa
시정: 6000m
고도 1000ft 상공 구름 많음

METAR: FKYS 180900Z 32005KT 270V360 6000 BKN010 25/21 Q1017 BECMG BKN013

시각: 10:33 (09:33 UTC)

예보

예보는 4 시간 33분 전, 05:00시(UTC)에 발표되었습니다.
예보 대상 시간: 18일 06시부터 19일 06시까지 (UTC)
여러 방향의 바람 4kt
시정: 4500m
고도 600ft 상공 구름 많음
연무
일시적
18일 06시부터 18일 08시까지 (UTC)
시정: 2000m
박무
전환 중
18일 08시부터 18일 10시까지 (UTC)
고도 2000ft 상공 구름 많음
전환 중
18일 20시부터 18일 22시까지 (UTC)
고도 600ft 상공 구름 많음

TAF: FKYS 180500Z 1806/1906 VRB04KT 4500 HZ BKN006 TEMPO 1806/1808 2000 BR BECMG 1808/1810 BKN020 BECMG 1820/1822 BKN006

4,000개 이상의 공항 관측 자료 및 예보 (METAR 및 TAF 보고).

지도상에서 검색 가능한 기상관측소가 노란 점과 빨간 점으로 표시되어 있습니다.

기상관측소 명을 보려면 표시 위로 마우스를 이동하세요.

날씨 관측과 예보를 보려면 클릭하세요.

지도 변경 : 확대하려면 엑스 표시가 있는 녹색 버튼, 축소하려면 빼기 표시가 있는 녹색 버튼, 다음 페이지의 지도를 보려면 녹색 화살표를 클릭하세요.


METAR-TAF: